Time;durP1;ratioP1;P1;durP2;ratioP2;P2;SDS_P1;SDS_P2;PMS_P1;PMS_P2;Temp;Humidity;BMP_temperature;BMP_pressure;BME280_temperature;BME280_humidity;BME280_pressure;Samples;Min_cycle;Max_cycle;Signal;HPM_P1;HPM_P2
2022/10/20 01:06:55;;;;;;;35.03;24.10;;;;;;;;;;7211111;19;50705;-78
2022/10/20 01:09:20;;;;;;;38.38;25.33;;;;;;;;;;7337007;19;20379;-75
2022/10/20 01:11:46;;;;;;;38.75;27.23;;;;;;;;;;7337125;19;20014;-75
2022/10/20 01:14:14;;;;;;;40.20;28.47;;;;;;;;;;7359526;19;20014;-73
2022/10/20 01:16:57;;;;;;;39.28;28.95;;;;;;;;;;7358536;19;20330;-75
2022/10/20 01:19:41;;;;;;;45.00;31.10;;;;;;;;;;7370087;19;20017;-74
2022/10/20 01:22:21;;;;;;;42.45;29.63;;;;;;;;;;7372456;19;19999;-73
2022/10/20 01:24:47;;;;;;;41.30;29.05;;;;;;;;;;7362316;19;20021;-73
2022/10/20 01:27:15;;;;;;;47.03;31.00;;;;;;;;;;7367524;19;20361;-73
2022/10/20 01:29:46;;;;;;;44.35;31.42;;;;;;;;;;7367068;19;20251;-74
2022/10/20 01:32:30;;;;;;;47.25;31.80;;;;;;;;;;7370675;19;20082;-75
2022/10/20 01:35:04;;;;;;;47.33;32.15;;;;;;;;;;7369785;19;20007;-74
2022/10/20 01:37:45;;;;;;;51.08;32.42;;;;;;;;;;7373399;19;20027;-73
2022/10/20 01:40:15;;;;;;;47.38;32.65;;;;;;;;;;7361323;19;20448;-74
2022/10/20 01:42:40;;;;;;;44.97;30.20;;;;;;;;;;7375300;19;20039;-74
2022/10/20 01:45:06;;;;;;;47.25;30.58;;;;;;;;;;7367645;19;20022;-74
2022/10/20 01:47:33;;;;;;;43.95;30.67;;;;;;;;;;7376064;19;20107;-74
2022/10/20 01:49:59;;;;;;;42.92;31.30;;;;;;;;;;7378485;19;20013;-74
2022/10/20 01:52:26;;;;;;;48.97;31.20;;;;;;;;;;7378034;19;20050;-74
2022/10/20 01:54:51;;;;;;;45.97;31.42;;;;;;;;;;7374270;19;20477;-74
2022/10/20 01:57:16;;;;;;;44.37;29.97;;;;;;;;;;7375629;19;20007;-74
2022/10/20 01:59:49;;;;;;;45.20;29.57;;;;;;;;;;7372208;19;20663;-74
2022/10/20 02:02:41;;;;;;;43.92;30.17;;;;;;;;;;7357166;19;20227;-76
2022/10/20 02:05:15;;;;;;;46.17;31.88;;;;;;;;;;7373140;19;20022;-76
2022/10/20 02:07:41;;;;;;;52.40;34.45;;;;;;;;;;7374454;19;20026;-75
2022/10/20 02:10:17;;;;;;;48.58;31.80;;;;;;;;;;7378872;19;20397;-76
2022/10/20 02:12:44;;;;;;;43.67;31.88;;;;;;;;;;7372693;19;20006;-74
2022/10/20 02:15:11;;;;;;;43.28;29.77;;;;;;;;;;7361914;19;20026;-75
2022/10/20 02:17:37;;;;;;;42.63;29.95;;;;;;;;;;7375035;19;20031;-75
2022/10/20 02:20:05;;;;;;;45.25;29.15;;;;;;;;;;7367907;19;20017;-75
2022/10/20 02:22:30;;;;;;;43.10;28.63;;;;;;;;;;7364918;19;20045;-75
2022/10/20 02:24:56;;;;;;;44.83;30.27;;;;;;;;;;7370299;19;20015;-75
2022/10/20 02:27:32;;;;;;;44.73;28.53;;;;;;;;;;7368693;19;19998;-75
2022/10/20 02:29:59;;;;;;;46.30;31.35;;;;;;;;;;7368622;19;20327;-75
2022/10/20 02:32:25;;;;;;;43.30;29.63;;;;;;;;;;7365842;19;20022;-75
2022/10/20 02:34:51;;;;;;;46.35;31.10;;;;;;;;;;7368790;19;20014;-76
2022/10/20 02:37:16;;;;;;;49.95;32.83;;;;;;;;;;7370908;19;20027;-76
2022/10/20 02:39:41;;;;;;;45.83;30.60;;;;;;;;;;7367182;19;20027;-76
2022/10/20 02:42:06;;;;;;;43.92;29.92;;;;;;;;;;7371428;19;20240;-76
2022/10/20 02:44:32;;;;;;;42.92;29.65;;;;;;;;;;7370656;19;20078;-75
2022/10/20 02:46:57;;;;;;;42.67;28.40;;;;;;;;;;7365648;19;20417;-76
2022/10/20 02:49:23;;;;;;;40.67;27.30;;;;;;;;;;7372782;19;20569;-75
2022/10/20 02:51:49;;;;;;;40.42;28.02;;;;;;;;;;7372104;19;20568;-75
2022/10/20 02:54:14;;;;;;;41.20;27.95;;;;;;;;;;7366964;19;20015;-75
2022/10/20 02:56:39;;;;;;;44.28;29.65;;;;;;;;;;7370714;19;20018;-76
2022/10/20 02:59:04;;;;;;;43.42;29.30;;;;;;;;;;7373604;19;20018;-74
2022/10/20 03:01:30;;;;;;;41.97;29.60;;;;;;;;;;7319403;19;20378;-76
2022/10/20 03:03:58;;;;;;;44.85;29.98;;;;;;;;;;7367342;19;20243;-76
2022/10/20 03:06:24;;;;;;;45.75;31.08;;;;;;;;;;7347753;19;19994;-75
2022/10/20 03:08:49;;;;;;;46.78;29.77;;;;;;;;;;7366717;19;20018;-75
2022/10/20 03:11:14;;;;;;;42.37;28.27;;;;;;;;;;7370274;19;20087;-75
2022/10/20 03:13:39;;;;;;;40.80;28.60;;;;;;;;;;7365520;19;20259;-76
2022/10/20 03:16:05;;;;;;;43.97;30.03;;;;;;;;;;7348635;19;20026;-76
2022/10/20 03:18:30;;;;;;;48.15;29.88;;;;;;;;;;7371715;19;20259;-75
2022/10/20 03:20:55;;;;;;;44.00;29.03;;;;;;;;;;7371012;19;20010;-75
2022/10/20 03:23:20;;;;;;;44.50;28.77;;;;;;;;;;7369473;19;20773;-76
2022/10/20 03:25:46;;;;;;;46.92;28.50;;;;;;;;;;7369546;19;20012;-75
2022/10/20 03:28:12;;;;;;;43.67;27.75;;;;;;;;;;7369960;19;20025;-76
2022/10/20 03:30:37;;;;;;;41.67;28.67;;;;;;;;;;7368454;19;20006;-76
2022/10/20 03:33:02;;;;;;;42.50;28.13;;;;;;;;;;7369173;19;19995;-75
2022/10/20 03:35:27;;;;;;;44.85;28.58;;;;;;;;;;7368781;19;20009;-73
2022/10/20 03:37:52;;;;;;;45.43;29.50;;;;;;;;;;7369787;19;19995;-74
2022/10/20 03:40:18;;;;;;;43.33;29.00;;;;;;;;;;7367174;19;20668;-74
2022/10/20 03:42:43;;;;;;;44.40;28.80;;;;;;;;;;7375072;19;20259;-73
2022/10/20 03:45:08;;;;;;;43.35;28.00;;;;;;;;;;7369432;19;20262;-73
2022/10/20 03:47:34;;;;;;;44.83;29.60;;;;;;;;;;7383964;19;20014;-74
2022/10/20 03:49:59;;;;;;;45.22;29.58;;;;;;;;;;7384531;19;20014;-73
2022/10/20 03:52:24;;;;;;;46.90;30.33;;;;;;;;;;7385571;19;20477;-74
2022/10/20 03:54:49;;;;;;;46.00;30.27;;;;;;;;;;7374427;19;20381;-73
2022/10/20 03:57:14;;;;;;;40.97;29.60;;;;;;;;;;7377952;19;20078;-74
2022/10/20 03:59:40;;;;;;;44.85;28.38;;;;;;;;;;7382435;19;20010;-75
2022/10/20 04:02:05;;;;;;;44.72;28.08;;;;;;;;;;7381180;19;20286;-73
2022/10/20 04:04:30;;;;;;;47.37;29.50;;;;;;;;;;7379710;19;20011;-74
2022/10/20 04:06:55;;;;;;;45.03;30.67;;;;;;;;;;7382868;19;20279;-74
2022/10/20 04:09:20;;;;;;;45.43;29.93;;;;;;;;;;7380794;19;20049;-73
2022/10/20 04:11:46;;;;;;;44.13;29.77;;;;;;;;;;7385138;19;20283;-73
2022/10/20 04:14:11;;;;;;;50.03;31.13;;;;;;;;;;7373555;19;20247;-74
2022/10/20 04:16:36;;;;;;;52.60;31.45;;;;;;;;;;7369210;19;20126;-75
2022/10/20 04:19:01;;;;;;;44.72;28.67;;;;;;;;;;7374382;19;20526;-74
2022/10/20 04:21:26;;;;;;;45.93;29.53;;;;;;;;;;7375869;19;20015;-74
2022/10/20 04:23:52;;;;;;;48.10;30.07;;;;;;;;;;7373108;19;20880;-75
2022/10/20 04:26:17;;;;;;;47.97;30.73;;;;;;;;;;7375210;19;20323;-73
2022/10/20 04:28:42;;;;;;;49.10;31.30;;;;;;;;;;7370314;19;20010;-75
2022/10/20 04:31:07;;;;;;;45.53;30.15;;;;;;;;;;7337605;19;20251;-75
2022/10/20 04:33:33;;;;;;;47.38;30.15;;;;;;;;;;7369547;19;20292;-75
2022/10/20 04:35:59;;;;;;;47.60;30.45;;;;;;;;;;7367244;19;20033;-73
2022/10/20 04:38:24;;;;;;;42.50;28.60;;;;;;;;;;7364879;19;20027;-75
2022/10/20 04:40:53;;;;;;;43.55;29.02;;;;;;;;;;7367731;19;20454;-75
2022/10/20 04:43:18;;;;;;;50.85;31.42;;;;;;;;;;7378784;19;20023;-75
2022/10/20 04:45:44;;;;;;;45.30;29.47;;;;;;;;;;7369689;19;20011;-76
2022/10/20 04:48:09;;;;;;;52.50;30.47;;;;;;;;;;7366802;19;20271;-75
2022/10/20 04:50:34;;;;;;;47.60;30.50;;;;;;;;;;7376484;19;20251;-76
2022/10/20 04:52:59;;;;;;;45.17;29.63;;;;;;;;;;7374550;19;20018;-75
2022/10/20 04:55:24;;;;;;;44.30;29.42;;;;;;;;;;7365970;19;20236;-75
2022/10/20 04:57:49;;;;;;;47.10;30.53;;;;;;;;;;7372766;19;20490;-74
2022/10/20 05:00:15;;;;;;;41.80;27.13;;;;;;;;;;7373808;19;20259;-74
2022/10/20 05:02:40;;;;;;;47.03;28.90;;;;;;;;;;7368753;19;20361;-74
2022/10/20 05:05:05;;;;;;;44.33;28.60;;;;;;;;;;7355068;19;20007;-75
2022/10/20 05:07:30;;;;;;;44.60;29.25;;;;;;;;;;7372484;19;20442;-75
2022/10/20 05:09:56;;;;;;;39.67;27.73;;;;;;;;;;7382793;19;20046;-76
2022/10/20 05:12:21;;;;;;;49.80;30.43;;;;;;;;;;7377166;19;20251;-75
2022/10/20 05:14:46;;;;;;;44.10;29.87;;;;;;;;;;7374810;19;20258;-76
2022/10/20 05:17:11;;;;;;;46.73;28.53;;;;;;;;;;7369814;19;20251;-75
2022/10/20 05:19:36;;;;;;;50.17;28.40;;;;;;;;;;7380129;19;20766;-75
2022/10/20 05:22:01;;;;;;;42.80;27.43;;;;;;;;;;7358880;19;20677;-75
2022/10/20 05:24:27;;;;;;;46.58;29.63;;;;;;;;;;7375748;19;20790;-75
2022/10/20 05:26:52;;;;;;;42.20;27.75;;;;;;;;;;7379953;19;20450;-75
2022/10/20 05:29:17;;;;;;;48.83;28.67;;;;;;;;;;7382310;19;20110;-75
2022/10/20 05:31:43;;;;;;;46.78;29.27;;;;;;;;;;7368984;19;20014;-74
2022/10/20 05:34:09;;;;;;;46.17;29.90;;;;;;;;;;7381949;19;20442;-74
2022/10/20 05:36:34;;;;;;;47.80;28.05;;;;;;;;;;7374011;19;20011;-76
2022/10/20 05:38:59;;;;;;;44.58;29.05;;;;;;;;;;7378186;19;20630;-75
2022/10/20 05:41:26;;;;;;;42.05;26.65;;;;;;;;;;7373900;19;20473;-74
2022/10/20 05:43:56;;;;;;;47.95;30.92;;;;;;;;;;7370705;19;20341;-75
2022/10/20 05:46:21;;;;;;;40.88;28.08;;;;;;;;;;7369223;19;20041;-75
2022/10/20 05:48:46;;;;;;;51.90;29.45;;;;;;;;;;7376353;19;20470;-75
2022/10/20 05:51:16;;;;;;;46.35;27.90;;;;;;;;;;7376961;19;20375;-75
2022/10/20 05:53:42;;;;;;;42.67;26.75;;;;;;;;;;7358586;19;20351;-76
2022/10/20 05:56:08;;;;;;;42.42;27.02;;;;;;;;;;7360703;19;20014;-75
2022/10/20 05:58:34;;;;;;;45.78;27.23;;;;;;;;;;7367309;19;20006;-74
2022/10/20 06:01:10;;;;;;;40.03;25.52;;;;;;;;;;7360499;19;20529;-75
2022/10/20 06:03:36;;;;;;;42.00;26.00;;;;;;;;;;7377007;19;20026;-75
2022/10/20 06:06:01;;;;;;;39.20;26.10;;;;;;;;;;7373286;19;20039;-76
2022/10/20 06:08:31;;;;;;;41.88;26.27;;;;;;;;;;7371308;19;20043;-74
2022/10/20 06:10:56;;;;;;;47.17;25.90;;;;;;;;;;7377630;19;20018;-74
2022/10/20 06:13:21;;;;;;;38.95;25.27;;;;;;;;;;7375953;19;20438;-75
2022/10/20 06:15:48;;;;;;;36.80;24.45;;;;;;;;;;7370908;19;20014;-74
2022/10/20 06:18:13;;;;;;;36.25;24.02;;;;;;;;;;7364544;19;20010;-76
2022/10/20 06:20:38;;;;;;;37.72;24.17;;;;;;;;;;7369655;19;20073;-75
2022/10/20 06:23:03;;;;;;;38.50;22.50;;;;;;;;;;7370087;19;20459;-74
2022/10/20 06:25:28;;;;;;;34.80;22.80;;;;;;;;;;7370647;19;20556;-75
2022/10/20 06:27:54;;;;;;;39.70;26.53;;;;;;;;;;7367338;19;20669;-73
2022/10/20 06:30:19;;;;;;;37.75;24.38;;;;;;;;;;7373467;19;20594;-74
2022/10/20 06:32:44;;;;;;;38.58;23.25;;;;;;;;;;7374136;19;20002;-74
2022/10/20 06:35:09;;;;;;;34.33;22.03;;;;;;;;;;7375264;19;20007;-75
2022/10/20 06:37:35;;;;;;;37.10;21.83;;;;;;;;;;7378887;19;20248;-74
2022/10/20 06:40:00;;;;;;;31.40;21.60;;;;;;;;;;7374085;19;20341;-75
2022/10/20 06:42:25;;;;;;;32.92;21.23;;;;;;;;;;7377727;19;20002;-74
2022/10/20 06:44:50;;;;;;;33.30;20.02;;;;;;;;;;7374987;19;20366;-74
2022/10/20 06:47:16;;;;;;;30.60;20.75;;;;;;;;;;7376720;19;20018;-74
2022/10/20 06:49:41;;;;;;;32.30;19.77;;;;;;;;;;7375316;19;20042;-76
2022/10/20 06:52:06;;;;;;;31.80;19.90;;;;;;;;;;7376563;19;20229;-75
2022/10/20 06:54:31;;;;;;;30.90;19.53;;;;;;;;;;7358146;19;20243;-75
2022/10/20 06:56:56;;;;;;;30.88;20.58;;;;;;;;;;7367811;19;20250;-75
2022/10/20 06:59:21;;;;;;;26.57;18.67;;;;;;;;;;7378828;19;20001;-75
2022/10/20 07:01:47;;;;;;;32.38;20.40;;;;;;;;;;7355602;19;20263;-74
2022/10/20 07:04:13;;;;;;;27.73;18.92;;;;;;;;;;7376735;19;20015;-74
2022/10/20 07:06:40;;;;;;;29.60;19.38;;;;;;;;;;7372520;19;20022;-74
2022/10/20 07:09:07;;;;;;;31.05;18.08;;;;;;;;;;7372158;19;20018;-74
2022/10/20 07:11:32;;;;;;;29.48;16.80;;;;;;;;;;7376441;19;19999;-74
2022/10/20 07:13:57;;;;;;;27.98;17.63;;;;;;;;;;7375205;19;20010;-74
2022/10/20 07:16:24;;;;;;;26.73;17.13;;;;;;;;;;7369264;19;20013;-75
2022/10/20 07:18:49;;;;;;;24.60;17.05;;;;;;;;;;7379291;19;20030;-76
2022/10/20 07:21:15;;;;;;;28.67;17.52;;;;;;;;;;7384112;19;20007;-74
2022/10/20 07:23:41;;;;;;;26.85;16.30;;;;;;;;;;7380503;19;20041;-74
2022/10/20 07:26:06;;;;;;;24.65;16.25;;;;;;;;;;7382462;19;20003;-75
2022/10/20 07:28:32;;;;;;;33.70;17.63;;;;;;;;;;7382903;19;20010;-74
2022/10/20 07:31:02;;;;;;;23.70;16.27;;;;;;;;;;7374688;19;20273;-76
2022/10/20 07:33:27;;;;;;;26.13;16.33;;;;;;;;;;7381575;19;20015;-74
2022/10/20 07:35:52;;;;;;;27.60;16.53;;;;;;;;;;7383962;19;20005;-73
2022/10/20 07:38:17;;;;;;;24.40;16.37;;;;;;;;;;7384265;19;20258;-75
2022/10/20 07:40:42;;;;;;;24.00;15.10;;;;;;;;;;7378400;19;20247;-73
2022/10/20 07:43:08;;;;;;;24.90;15.30;;;;;;;;;;7384488;19;20272;-74
2022/10/20 07:45:33;;;;;;;25.07;14.67;;;;;;;;;;7383064;19;20007;-74
2022/10/20 07:47:58;;;;;;;27.07;16.07;;;;;;;;;;7379935;19;20657;-74
2022/10/20 07:50:23;;;;;;;26.30;14.70;;;;;;;;;;7383529;19;20243;-75
2022/10/20 07:52:49;;;;;;;23.48;14.95;;;;;;;;;;7381545;19;20311;-74
2022/10/20 07:55:15;;;;;;;22.77;14.23;;;;;;;;;;7383277;19;20345;-74
2022/10/20 07:57:40;;;;;;;21.00;13.90;;;;;;;;;;7382490;19;20086;-75
2022/10/20 08:00:06;;;;;;;27.00;15.15;;;;;;;;;;7366521;19;20507;-75
2022/10/20 08:02:31;;;;;;;23.80;13.25;;;;;;;;;;7370969;19;20007;-74
2022/10/20 08:04:56;;;;;;;22.85;14.30;;;;;;;;;;7382095;19;20019;-75
2022/10/20 08:07:21;;;;;;;22.70;14.85;;;;;;;;;;7381382;19;20038;-74
2022/10/20 08:09:46;;;;;;;19.37;13.77;;;;;;;;;;7379594;19;19998;-74
2022/10/20 08:12:11;;;;;;;21.02;14.20;;;;;;;;;;7381351;19;20763;-73
2022/10/20 08:14:37;;;;;;;23.50;13.73;;;;;;;;;;7382960;19;20038;-74
2022/10/20 08:17:03;;;;;;;19.45;13.05;;;;;;;;;;7376868;19;20010;-74
2022/10/20 08:19:28;;;;;;;22.17;14.02;;;;;;;;;;7379372;19;20356;-74
2022/10/20 08:21:53;;;;;;;23.85;14.93;;;;;;;;;;7380666;19;20027;-73
2022/10/20 08:24:18;;;;;;;23.80;15.00;;;;;;;;;;7383519;19;20011;-74
2022/10/20 08:26:43;;;;;;;22.77;14.50;;;;;;;;;;7376555;19;20247;-74
2022/10/20 08:29:09;;;;;;;25.30;14.03;;;;;;;;;;7375274;19;20398;-73
2022/10/20 08:31:34;;;;;;;27.02;14.00;;;;;;;;;;7369102;19;20266;-74
2022/10/20 08:34:00;;;;;;;24.73;14.52;;;;;;;;;;7380022;19;20473;-74
2022/10/20 08:36:27;;;;;;;22.48;15.40;;;;;;;;;;7381182;19;20109;-73
2022/10/20 08:38:53;;;;;;;28.48;15.38;;;;;;;;;;7379969;19;20363;-74
2022/10/20 08:41:23;;;;;;;22.30;14.48;;;;;;;;;;7376441;19;20002;-75
2022/10/20 08:43:52;;;;;;;22.15;14.43;;;;;;;;;;7382917;19;20069;-74
2022/10/20 08:46:18;;;;;;;24.75;15.13;;;;;;;;;;7375747;19;20458;-74
2022/10/20 08:48:45;;;;;;;21.50;14.30;;;;;;;;;;7379077;19;20021;-75
2022/10/20 08:51:16;;;;;;;24.83;14.10;;;;;;;;;;7381653;19;19994;-74
2022/10/20 08:53:42;;;;;;;22.95;12.68;;;;;;;;;;7377026;19;20018;-74
2022/10/20 08:56:10;;;;;;;22.83;13.57;;;;;;;;;;7380567;19;20005;-74
2022/10/20 08:58:40;;;;;;;29.10;14.05;;;;;;;;;;7380413;19;20600;-74
2022/10/20 09:01:13;;;;;;;23.88;14.10;;;;;;;;;;7376021;19;20015;-74
2022/10/20 09:03:38;;;;;;;22.63;14.18;;;;;;;;;;7382521;19;20697;-73
2022/10/20 09:06:11;;;;;;;25.88;15.90;;;;;;;;;;7378340;19;19995;-74
2022/10/20 09:08:38;;;;;;;26.20;14.67;;;;;;;;;;7359908;19;20048;-74
2022/10/20 09:11:06;;;;;;;25.42;14.95;;;;;;;;;;7368840;19;20035;-76
2022/10/20 09:13:31;;;;;;;26.25;15.77;;;;;;;;;;7378335;19;20482;-74
2022/10/20 09:16:10;;;;;;;23.45;15.20;;;;;;;;;;7373413;19;20244;-74
2022/10/20 09:18:35;;;;;;;28.38;15.10;;;;;;;;;;7380487;19;20010;-74
2022/10/20 09:21:03;;;;;;;29.38;16.40;;;;;;;;;;7377086;19;20014;-73
2022/10/20 09:23:36;;;;;;;24.48;15.13;;;;;;;;;;7371178;19;20007;-73
2022/10/20 09:26:02;;;;;;;30.40;17.17;;;;;;;;;;7372652;19;20687;-73
2022/10/20 09:28:27;;;;;;;33.45;18.27;;;;;;;;;;7376223;19;20022;-75
2022/10/20 09:30:53;;;;;;;27.58;16.42;;;;;;;;;;7374684;19;20021;-74
2022/10/20 09:33:29;;;;;;;27.02;16.58;;;;;;;;;;7372539;19;20348;-75
2022/10/20 09:36:24;;;;;;;27.58;17.17;;;;;;;;;;7377512;19;20010;-73
2022/10/20 09:38:50;;;;;;;27.23;17.42;;;;;;;;;;7374858;19;20034;-74
2022/10/20 09:41:34;;;;;;;25.67;16.27;;;;;;;;;;7376473;19;20578;-73
2022/10/20 09:44:00;;;;;;;28.42;17.80;;;;;;;;;;7375934;19;20010;-73
2022/10/20 09:46:30;;;;;;;27.23;16.55;;;;;;;;;;7347758;19;20006;-74
2022/10/20 09:48:56;;;;;;;30.48;17.13;;;;;;;;;;7375958;19;20018;-74
2022/10/20 09:51:23;;;;;;;26.48;17.83;;;;;;;;;;7372683;19;20006;-74
2022/10/20 09:53:50;;;;;;;27.45;16.50;;;;;;;;;;7375253;19;20018;-74
2022/10/20 09:56:22;;;;;;;28.38;16.33;;;;;;;;;;7374793;19;19995;-74
2022/10/20 09:58:47;;;;;;;29.33;16.58;;;;;;;;;;7377341;19;20423;-74
2022/10/20 10:01:13;;;;;;;32.23;17.17;;;;;;;;;;7369318;19;20006;-76
2022/10/20 10:03:39;;;;;;;26.05;16.92;;;;;;;;;;7374715;19;20255;-75
2022/10/20 10:06:18;;;;;;;27.57;18.13;;;;;;;;;;7376517;19;20018;-73
2022/10/20 10:08:44;;;;;;;27.20;18.00;;;;;;;;;;7375100;19;20267;-74
2022/10/20 10:11:20;;;;;;;26.20;17.52;;;;;;;;;;7348382;19;20089;-76
2022/10/20 10:13:47;;;;;;;27.80;18.23;;;;;;;;;;7376937;19;20463;-75
2022/10/20 10:16:14;;;;;;;26.00;18.23;;;;;;;;;;7371523;19;20022;-73
2022/10/20 10:18:39;;;;;;;27.15;18.08;;;;;;;;;;7375412;19;20038;-74
2022/10/20 10:21:09;;;;;;;44.17;21.23;;;;;;;;;;7369591;19;20002;-75
2022/10/20 10:23:39;;;;;;;34.95;20.80;;;;;;;;;;7373535;19;20014;-75
2022/10/20 10:26:24;;;;;;;39.10;24.20;;;;;;;;;;7375860;19;20043;-77
2022/10/20 10:28:56;;;;;;;39.17;24.42;;;;;;;;;;7371506;19;20022;-74
2022/10/20 10:31:22;;;;;;;37.13;24.75;;;;;;;;;;7375466;19;20025;-74
2022/10/20 10:33:59;;;;;;;42.00;26.48;;;;;;;;;;7377080;19;20051;-74
2022/10/20 10:36:30;;;;;;;49.85;25.80;;;;;;;;;;7379049;19;20014;-74
2022/10/20 10:38:55;;;;;;;50.13;27.92;;;;;;;;;;7376043;19;20347;-74
2022/10/20 10:41:41;;;;;;;44.38;26.83;;;;;;;;;;7371421;19;20003;-74
2022/10/20 10:44:21;;;;;;;40.95;26.42;;;;;;;;;;7374903;19;20573;-74
2022/10/20 10:46:58;;;;;;;41.17;26.38;;;;;;;;;;7366238;19;20007;-74
2022/10/20 10:49:30;;;;;;;46.25;26.10;;;;;;;;;;7371251;19;20014;-74
2022/10/20 10:52:01;;;;;;;38.78;25.00;;;;;;;;;;7375209;19;20494;-75
2022/10/20 10:54:26;;;;;;;37.28;25.17;;;;;;;;;;7373795;19;20022;-75
2022/10/20 10:56:59;;;;;;;37.10;24.00;;;;;;;;;;7372157;19;20489;-74
2022/10/20 10:59:27;;;;;;;39.53;26.08;;;;;;;;;;7375024;19;20256;-74
2022/10/20 11:02:11;;;;;;;43.60;26.77;;;;;;;;;;7371916;19;20018;-74
2022/10/20 11:04:45;;;;;;;40.50;25.45;;;;;;;;;;7376021;19;20006;-75
2022/10/20 11:07:31;;;;;;;40.45;25.33;;;;;;;;;;7375415;19;20006;-75
2022/10/20 11:09:56;;;;;;;41.92;25.67;;;;;;;;;;7369468;19;20014;-75
2022/10/20 11:12:34;;;;;;;43.47;26.53;;;;;;;;;;7377147;19;20170;-74
2022/10/20 11:15:03;;;;;;;40.83;25.75;;;;;;;;;;7369661;19;20236;-74
2022/10/20 11:17:45;;;;;;;41.78;25.58;;;;;;;;;;7375474;19;20443;-74
2022/10/20 11:20:17;;;;;;;40.80;25.63;;;;;;;;;;7376478;19;20109;-74
2022/10/20 11:22:54;;;;;;;36.08;23.23;;;;;;;;;;7375271;19;20509;-75
2022/10/20 11:25:28;;;;;;;38.03;24.67;;;;;;;;;;7370456;19;20609;-74
2022/10/20 11:27:54;;;;;;;36.90;24.95;;;;;;;;;;7370176;19;20006;-75
2022/10/20 11:30:21;;;;;;;43.55;23.45;;;;;;;;;;7373185;19;20018;-74
2022/10/20 11:32:52;;;;;;;33.30;23.55;;;;;;;;;;7371887;19;20043;-75
2022/10/20 11:35:23;;;;;;;35.95;23.55;;;;;;;;;;7371103;19;20558;-75
2022/10/20 11:37:55;;;;;;;36.45;23.25;;;;;;;;;;7375094;19;20019;-74
2022/10/20 11:40:26;;;;;;;42.10;24.65;;;;;;;;;;7372909;19;20015;-74
2022/10/20 11:43:06;;;;;;;41.38;23.05;;;;;;;;;;7367441;19;20011;-74
2022/10/20 11:45:36;;;;;;;37.97;23.52;;;;;;;;;;7361919;19;20006;-76
2022/10/20 11:48:10;;;;;;;38.75;24.63;;;;;;;;;;7369556;19;20638;-74
2022/10/20 11:50:35;;;;;;;39.97;23.02;;;;;;;;;;7374898;19;20385;-76
2022/10/20 11:53:06;;;;;;;38.53;24.92;;;;;;;;;;7367905;19;20098;-74
2022/10/20 11:55:38;;;;;;;33.72;22.77;;;;;;;;;;7370747;19;20006;-74
2022/10/20 11:58:29;;;;;;;38.72;22.42;;;;;;;;;;7362783;19;20015;-76
2022/10/20 12:00:54;;;;;;;35.40;23.85;;;;;;;;;;7371492;19;20010;-76
2022/10/20 12:03:39;;;;;;;35.00;22.47;;;;;;;;;;7374739;19;20793;-73
2022/10/20 12:06:33;;;;;;;39.58;24.00;;;;;;;;;;7373434;19;20263;-76
2022/10/20 12:09:18;;;;;;;36.05;24.88;;;;;;;;;;7369270;19;20015;-74
2022/10/20 12:11:43;;;;;;;;;;;;;;;;;;7378767;19;20074;-75
2022/10/20 12:14:14;;;;;;;40.72;25.42;;;;;;;;;;7383115;19;19918;-73
2022/10/20 12:17:02;;;;;;;34.53;23.48;;;;;;;;;;7377135;19;20024;-74
2022/10/20 12:19:31;;;;;;;44.20;25.25;;;;;;;;;;7382963;19;20416;-75
2022/10/20 12:21:58;;;;;;;41.78;25.33;;;;;;;;;;7376377;19;20038;-75
2022/10/20 12:24:35;;;;;;;37.53;25.60;;;;;;;;;;7367128;19;20022;-74
2022/10/20 12:27:06;;;;;;;46.67;26.70;;;;;;;;;;7378339;19;20130;-74
2022/10/20 12:29:31;;;;;;;41.75;24.65;;;;;;;;;;7373582;19;19998;-76
2022/10/20 12:32:29;;;;;;;45.50;30.37;;;;;;;;;;7366037;19;20017;-74
2022/10/20 12:34:58;;;;;;;45.40;26.50;;;;;;;;;;7374806;19;20005;-74
2022/10/20 12:37:23;;;;;;;40.20;24.35;;;;;;;;;;7379214;19;20010;-75
2022/10/20 12:39:48;;;;;;;47.20;27.33;;;;;;;;;;7376888;19;20010;-73
2022/10/20 12:42:27;;;;;;;38.00;25.23;;;;;;;;;;7381602;19;20719;-74
2022/10/20 12:44:53;;;;;;;40.30;24.65;;;;;;;;;;7363669;19;20011;-73
2022/10/20 12:47:22;;;;;;;37.47;23.42;;;;;;;;;;7380607;19;20450;-74
2022/10/20 12:49:53;;;;;;;44.10;24.73;;;;;;;;;;7379323;19;20376;-74
2022/10/20 12:52:20;;;;;;;37.30;22.90;;;;;;;;;;7379082;19;20399;-74
2022/10/20 12:54:46;;;;;;;39.08;24.75;;;;;;;;;;7374218;19;20454;-75
2022/10/20 12:57:26;;;;;;;40.15;24.38;;;;;;;;;;7376280;19;20010;-75
2022/10/20 12:59:51;;;;;;;44.72;25.13;;;;;;;;;;7376285;19;19994;-75
2022/10/20 13:02:17;;;;;;;40.97;25.15;;;;;;;;;;7379290;19;20018;-74
2022/10/20 13:04:52;;;;;;;35.30;23.20;;;;;;;;;;7375329;19;20017;-75
2022/10/20 13:07:36;;;;;;;34.72;22.40;;;;;;;;;;7381746;19;20595;-73
2022/10/20 13:10:21;;;;;;;34.38;21.27;;;;;;;;;;7378511;19;19995;-73
2022/10/20 13:12:46;;;;;;;39.00;22.00;;;;;;;;;;7378183;19;20006;-73
2022/10/20 13:15:14;;;;;;;34.20;20.83;;;;;;;;;;7367485;19;20050;-75
2022/10/20 13:17:59;;;;;;;35.88;21.98;;;;;;;;;;7379357;19;20268;-74
2022/10/20 13:20:34;;;;;;;34.20;22.05;;;;;;;;;;7381631;19;20486;-73
2022/10/20 13:23:00;;;;;;;33.42;21.63;;;;;;;;;;7375955;19;20014;-74
2022/10/20 13:25:25;;;;;;;40.33;23.25;;;;;;;;;;7376504;19;20003;-74
2022/10/20 13:28:00;;;;;;;35.30;20.25;;;;;;;;;;7379907;19;20006;-74
2022/10/20 13:30:26;;;;;;;30.92;19.25;;;;;;;;;;7379526;19;20222;-75
2022/10/20 13:32:58;;;;;;;33.90;19.30;;;;;;;;;;7380651;19;20069;-74
2022/10/20 13:35:38;;;;;;;32.60;19.80;;;;;;;;;;7381584;19;20327;-73
2022/10/20 13:38:16;;;;;;;29.75;18.42;;;;;;;;;;7375475;19;20287;-74
2022/10/20 13:41:02;;;;;;;30.95;19.20;;;;;;;;;;7378694;19;20082;-73
2022/10/20 13:43:27;;;;;;;30.98;20.05;;;;;;;;;;7375966;19;20518;-74
2022/10/20 13:46:11;;;;;;;41.93;22.30;;;;;;;;;;7370285;19;20010;-74
2022/10/20 13:48:54;;;;;;;34.60;20.83;;;;;;;;;;7378199;19;20279;-73
2022/10/20 13:51:22;;;;;;;37.35;22.77;;;;;;;;;;7378258;19;20002;-75
2022/10/20 13:53:49;;;;;;;34.05;21.05;;;;;;;;;;7373986;19;20027;-76
2022/10/20 13:56:15;;;;;;;35.40;23.20;;;;;;;;;;7378473;19;20080;-76
2022/10/20 13:58:40;;;;;;;35.53;21.30;;;;;;;;;;7380801;19;20028;-76
2022/10/20 14:01:13;;;;;;;31.88;20.13;;;;;;;;;;7375512;19;20275;-74
2022/10/20 14:03:42;;;;;;;35.30;19.95;;;;;;;;;;7378974;19;20042;-74
2022/10/20 14:06:26;;;;;;;32.10;19.17;;;;;;;;;;7378095;19;20023;-75
2022/10/20 14:08:51;;;;;;;39.95;20.73;;;;;;;;;;7379064;19;20336;-74
2022/10/20 14:11:16;;;;;;;30.98;18.30;;;;;;;;;;7375335;19;20017;-75
2022/10/20 14:13:42;;;;;;;32.90;17.80;;;;;;;;;;7378961;19;20334;-74
2022/10/20 14:16:14;;;;;;;30.00;19.10;;;;;;;;;;7374194;19;20003;-74
2022/10/20 14:18:39;;;;;;;32.35;19.35;;;;;;;;;;7380455;19;20018;-74
2022/10/20 14:21:07;;;;;;;29.53;18.90;;;;;;;;;;7379144;19;20515;-74
2022/10/20 14:23:36;;;;;;;33.17;19.15;;;;;;;;;;7376350;19;20066;-74
2022/10/20 14:26:02;;;;;;;35.60;19.05;;;;;;;;;;7372103;19;20339;-74
2022/10/20 14:28:31;;;;;;;38.55;19.17;;;;;;;;;;7377747;19;20014;-73
2022/10/20 14:30:57;;;;;;;30.73;18.00;;;;;;;;;;7376279;19;19994;-75
2022/10/20 14:33:22;;;;;;;32.15;18.48;;;;;;;;;;7380125;19;20020;-74
2022/10/20 14:35:52;;;;;;;31.37;18.40;;;;;;;;;;7380441;19;20002;-73
2022/10/20 14:38:30;;;;;;;31.50;17.98;;;;;;;;;;7381084;19;20263;-76
2022/10/20 14:40:56;;;;;;;32.63;19.27;;;;;;;;;;7373287;19;20037;-75
2022/10/20 14:43:24;;;;;;;31.65;18.92;;;;;;;;;;7380882;19;20037;-73
2022/10/20 14:45:51;;;;;;;29.50;18.25;;;;;;;;;;7376073;19;20034;-75
2022/10/20 14:48:16;;;;;;;36.85;17.95;;;;;;;;;;7379658;19;20014;-75
2022/10/20 14:50:41;;;;;;;31.00;17.30;;;;;;;;;;7377817;19;20500;-74
2022/10/20 14:53:23;;;;;;;32.25;18.20;;;;;;;;;;7378114;19;20251;-73
2022/10/20 14:55:49;;;;;;;34.60;19.05;;;;;;;;;;7373551;19;20455;-74
2022/10/20 14:58:40;;;;;;;28.00;18.02;;;;;;;;;;7379044;19;20015;-74
2022/10/20 15:01:21;;;;;;;31.23;17.83;;;;;;;;;;7370330;19;20423;-75
2022/10/20 15:04:01;;;;;;;30.23;18.30;;;;;;;;;;7379657;19;20025;-74
2022/10/20 15:06:26;;;;;;;31.27;19.50;;;;;;;;;;7376961;19;20002;-75
2022/10/20 15:08:53;;;;;;;28.52;19.17;;;;;;;;;;7374374;19;20018;-73
2022/10/20 15:11:22;;;;;;;35.35;18.85;;;;;;;;;;7378805;19;20014;-74
2022/10/20 15:13:50;;;;;;;27.92;18.35;;;;;;;;;;7378068;19;20021;-73
2022/10/20 15:16:30;;;;;;;32.08;19.20;;;;;;;;;;7373415;19;20401;-74
2022/10/20 15:19:13;;;;;;;28.85;19.13;;;;;;;;;;7375984;19;20014;-73
2022/10/20 15:21:39;;;;;;;30.48;19.33;;;;;;;;;;7373799;19;20281;-76
2022/10/20 15:24:04;;;;;;;33.33;20.65;;;;;;;;;;7376103;19;20006;-73
2022/10/20 15:26:29;;;;;;;35.92;19.63;;;;;;;;;;7377186;19;20014;-74
2022/10/20 15:28:54;;;;;;;28.67;19.60;;;;;;;;;;7373794;19;20038;-75
2022/10/20 15:31:21;;;;;;;39.40;22.83;;;;;;;;;;7375806;19;20368;-76
2022/10/20 15:33:46;;;;;;;34.45;22.15;;;;;;;;;;7376721;19;20003;-73